sensor_id;sensor_type;location;lat;lon;timestamp;P1;durP1;ratioP1;P2;durP2;ratioP2
13590;SDS011;6866;50.778;7.206;2023-08-24T00:00:55;8.70;;;3.60;;
13590;SDS011;6866;50.778;7.206;2023-08-24T00:03:21;8.63;;;3.92;;
13590;SDS011;6866;50.778;7.206;2023-08-24T00:05:47;12.80;;;4.22;;
13590;SDS011;6866;50.778;7.206;2023-08-24T00:08:13;9.43;;;3.72;;
13590;SDS011;6866;50.778;7.206;2023-08-24T00:10:38;10.35;;;3.78;;
13590;SDS011;6866;50.778;7.206;2023-08-24T00:13:04;11.52;;;3.40;;
13590;SDS011;6866;50.778;7.206;2023-08-24T00:15:30;10.38;;;3.83;;
13590;SDS011;6866;50.778;7.206;2023-08-24T00:17:56;6.63;;;3.53;;
13590;SDS011;6866;50.778;7.206;2023-08-24T00:20:21;9.73;;;4.30;;
13590;SDS011;6866;50.778;7.206;2023-08-24T00:22:47;9.45;;;3.75;;
13590;SDS011;6866;50.778;7.206;2023-08-24T00:25:13;11.15;;;3.65;;
13590;SDS011;6866;50.778;7.206;2023-08-24T00:27:39;9.55;;;3.97;;
13590;SDS011;6866;50.778;7.206;2023-08-24T00:30:06;7.70;;;3.47;;
13590;SDS011;6866;50.778;7.206;2023-08-24T00:32:32;12.40;;;3.92;;
13590;SDS011;6866;50.778;7.206;2023-08-24T00:35:00;6.93;;;3.58;;
13590;SDS011;6866;50.778;7.206;2023-08-24T00:37:30;7.90;;;3.78;;
13590;SDS011;6866;50.778;7.206;2023-08-24T00:39:56;9.18;;;3.80;;
13590;SDS011;6866;50.778;7.206;2023-08-24T00:42:24;7.97;;;3.85;;
13590;SDS011;6866;50.778;7.206;2023-08-24T00:44:49;10.15;;;4.03;;
13590;SDS011;6866;50.778;7.206;2023-08-24T00:47:15;11.05;;;4.07;;
13590;SDS011;6866;50.778;7.206;2023-08-24T00:49:42;9.23;;;3.88;;
13590;SDS011;6866;50.778;7.206;2023-08-24T00:52:07;10.38;;;4.25;;
13590;SDS011;6866;50.778;7.206;2023-08-24T00:54:33;8.52;;;4.15;;
13590;SDS011;6866;50.778;7.206;2023-08-24T00:57:00;10.07;;;3.88;;
13590;SDS011;6866;50.778;7.206;2023-08-24T00:59:26;12.13;;;4.00;;
13590;SDS011;6866;50.778;7.206;2023-08-24T01:04:27;8.15;;;3.80;;
13590;SDS011;6866;50.778;7.206;2023-08-24T01:06:52;10.93;;;4.05;;
13590;SDS011;6866;50.778;7.206;2023-08-24T01:09:18;10.98;;;4.30;;
13590;SDS011;6866;50.778;7.206;2023-08-24T01:14:33;9.23;;;3.67;;
13590;SDS011;6866;50.778;7.206;2023-08-24T01:17:07;16.23;;;4.00;;
13590;SDS011;6866;50.778;7.206;2023-08-24T01:19:39;8.13;;;4.07;;
13590;SDS011;6866;50.778;7.206;2023-08-24T01:22:20;7.40;;;3.85;;
13590;SDS011;6866;50.778;7.206;2023-08-24T01:27:49;12.23;;;4.18;;
13590;SDS011;6866;50.778;7.206;2023-08-24T01:30:17;9.73;;;4.05;;
13590;SDS011;6866;50.778;7.206;2023-08-24T01:32:43;14.73;;;4.63;;
13590;SDS011;6866;50.778;7.206;2023-08-24T01:35:09;7.93;;;3.97;;
13590;SDS011;6866;50.778;7.206;2023-08-24T01:37:35;11.00;;;4.30;;
13590;SDS011;6866;50.778;7.206;2023-08-24T01:42:35;9.38;;;3.90;;
13590;SDS011;6866;50.778;7.206;2023-08-24T01:45:08;8.23;;;3.78;;
13590;SDS011;6866;50.778;7.206;2023-08-24T01:47:35;7.97;;;3.90;;
13590;SDS011;6866;50.778;7.206;2023-08-24T01:50:03;10.05;;;4.13;;
13590;SDS011;6866;50.778;7.206;2023-08-24T01:52:29;7.97;;;4.10;;
13590;SDS011;6866;50.778;7.206;2023-08-24T01:54:56;8.13;;;4.13;;
13590;SDS011;6866;50.778;7.206;2023-08-24T01:57:22;9.57;;;4.00;;
13590;SDS011;6866;50.778;7.206;2023-08-24T01:59:47;12.43;;;3.95;;
13590;SDS011;6866;50.778;7.206;2023-08-24T02:02:13;9.13;;;3.72;;
13590;SDS011;6866;50.778;7.206;2023-08-24T02:04:38;7.70;;;4.10;;
13590;SDS011;6866;50.778;7.206;2023-08-24T02:07:04;9.60;;;4.00;;
13590;SDS011;6866;50.778;7.206;2023-08-24T02:09:29;8.80;;;3.80;;
13590;SDS011;6866;50.778;7.206;2023-08-24T02:11:56;7.82;;;4.18;;
13590;SDS011;6866;50.778;7.206;2023-08-24T02:14:21;9.05;;;4.05;;
13590;SDS011;6866;50.778;7.206;2023-08-24T02:16:47;7.95;;;3.90;;
13590;SDS011;6866;50.778;7.206;2023-08-24T02:19:13;9.38;;;4.38;;
13590;SDS011;6866;50.778;7.206;2023-08-24T02:21:38;7.95;;;4.00;;
13590;SDS011;6866;50.778;7.206;2023-08-24T02:24:04;11.82;;;4.15;;
13590;SDS011;6866;50.778;7.206;2023-08-24T02:26:30;8.23;;;4.28;;
13590;SDS011;6866;50.778;7.206;2023-08-24T02:28:56;8.60;;;4.13;;
13590;SDS011;6866;50.778;7.206;2023-08-24T02:31:22;9.13;;;4.30;;
13590;SDS011;6866;50.778;7.206;2023-08-24T02:33:48;9.32;;;3.85;;
13590;SDS011;6866;50.778;7.206;2023-08-24T02:36:14;11.68;;;4.35;;
13590;SDS011;6866;50.778;7.206;2023-08-24T02:38:40;9.57;;;4.30;;
13590;SDS011;6866;50.778;7.206;2023-08-24T02:41:06;9.55;;;4.38;;
13590;SDS011;6866;50.778;7.206;2023-08-24T02:43:32;11.85;;;4.68;;
13590;SDS011;6866;50.778;7.206;2023-08-24T02:46:02;6.35;;;4.13;;
13590;SDS011;6866;50.778;7.206;2023-08-24T02:48:29;9.23;;;3.92;;
13590;SDS011;6866;50.778;7.206;2023-08-24T02:50:57;9.93;;;3.58;;
13590;SDS011;6866;50.778;7.206;2023-08-24T02:53:23;8.25;;;3.90;;
13590;SDS011;6866;50.778;7.206;2023-08-24T02:55:48;9.02;;;4.00;;
13590;SDS011;6866;50.778;7.206;2023-08-24T02:58:14;6.43;;;3.65;;
13590;SDS011;6866;50.778;7.206;2023-08-24T03:00:40;7.20;;;4.25;;
13590;SDS011;6866;50.778;7.206;2023-08-24T03:03:05;10.05;;;4.30;;
13590;SDS011;6866;50.778;7.206;2023-08-24T03:05:31;7.35;;;4.40;;
13590;SDS011;6866;50.778;7.206;2023-08-24T03:07:57;10.50;;;4.28;;
13590;SDS011;6866;50.778;7.206;2023-08-24T03:10:23;7.05;;;4.18;;
13590;SDS011;6866;50.778;7.206;2023-08-24T03:12:49;11.60;;;4.20;;
13590;SDS011;6866;50.778;7.206;2023-08-24T03:15:15;7.38;;;4.35;;
13590;SDS011;6866;50.778;7.206;2023-08-24T03:17:40;9.82;;;4.60;;
13590;SDS011;6866;50.778;7.206;2023-08-24T03:20:06;14.57;;;4.70;;
13590;SDS011;6866;50.778;7.206;2023-08-24T03:22:32;10.68;;;4.30;;
13590;SDS011;6866;50.778;7.206;2023-08-24T03:24:58;11.57;;;5.00;;
13590;SDS011;6866;50.778;7.206;2023-08-24T03:27:24;10.38;;;4.68;;
13590;SDS011;6866;50.778;7.206;2023-08-24T03:29:51;7.03;;;4.57;;
13590;SDS011;6866;50.778;7.206;2023-08-24T03:32:18;13.88;;;4.70;;
13590;SDS011;6866;50.778;7.206;2023-08-24T03:34:44;11.18;;;4.45;;
13590;SDS011;6866;50.778;7.206;2023-08-24T03:37:09;9.20;;;4.70;;
13590;SDS011;6866;50.778;7.206;2023-08-24T03:39:38;13.95;;;4.63;;
13590;SDS011;6866;50.778;7.206;2023-08-24T03:42:04;8.40;;;4.20;;
13590;SDS011;6866;50.778;7.206;2023-08-24T03:44:29;9.98;;;4.70;;
13590;SDS011;6866;50.778;7.206;2023-08-24T03:46:55;9.63;;;4.50;;
13590;SDS011;6866;50.778;7.206;2023-08-24T03:49:20;10.43;;;5.00;;
13590;SDS011;6866;50.778;7.206;2023-08-24T03:51:46;10.20;;;4.80;;
13590;SDS011;6866;50.778;7.206;2023-08-24T03:54:12;10.48;;;4.45;;
13590;SDS011;6866;50.778;7.206;2023-08-24T03:56:37;7.35;;;4.15;;
13590;SDS011;6866;50.778;7.206;2023-08-24T03:59:03;9.63;;;4.25;;
13590;SDS011;6866;50.778;7.206;2023-08-24T04:01:29;15.25;;;4.30;;
13590;SDS011;6866;50.778;7.206;2023-08-24T04:03:54;13.70;;;4.25;;
13590;SDS011;6866;50.778;7.206;2023-08-24T04:06:20;7.55;;;4.35;;
13590;SDS011;6866;50.778;7.206;2023-08-24T04:08:46;7.53;;;4.55;;
13590;SDS011;6866;50.778;7.206;2023-08-24T04:11:11;10.93;;;4.28;;
13590;SDS011;6866;50.778;7.206;2023-08-24T04:13:37;8.10;;;4.20;;
13590;SDS011;6866;50.778;7.206;2023-08-24T04:16:03;9.50;;;4.28;;
13590;SDS011;6866;50.778;7.206;2023-08-24T04:18:28;11.20;;;4.18;;
13590;SDS011;6866;50.778;7.206;2023-08-24T04:20:54;7.40;;;3.92;;
13590;SDS011;6866;50.778;7.206;2023-08-24T04:23:23;7.15;;;4.05;;
13590;SDS011;6866;50.778;7.206;2023-08-24T04:25:50;9.30;;;4.13;;
13590;SDS011;6866;50.778;7.206;2023-08-24T04:28:16;8.38;;;3.95;;
13590;SDS011;6866;50.778;7.206;2023-08-24T04:30:48;10.00;;;4.63;;
13590;SDS011;6866;50.778;7.206;2023-08-24T04:33:21;12.93;;;4.28;;
13590;SDS011;6866;50.778;7.206;2023-08-24T04:35:47;7.65;;;4.60;;
13590;SDS011;6866;50.778;7.206;2023-08-24T04:38:14;8.35;;;4.38;;
13590;SDS011;6866;50.778;7.206;2023-08-24T04:40:49;10.00;;;4.43;;
13590;SDS011;6866;50.778;7.206;2023-08-24T04:43:16;6.80;;;3.97;;
13590;SDS011;6866;50.778;7.206;2023-08-24T04:45:45;14.02;;;4.43;;
13590;SDS011;6866;50.778;7.206;2023-08-24T04:48:11;11.02;;;4.45;;
13590;SDS011;6866;50.778;7.206;2023-08-24T04:50:37;8.90;;;4.35;;
13590;SDS011;6866;50.778;7.206;2023-08-24T04:53:02;11.52;;;4.20;;
13590;SDS011;6866;50.778;7.206;2023-08-24T04:55:28;8.88;;;4.35;;
13590;SDS011;6866;50.778;7.206;2023-08-24T04:57:53;13.25;;;4.70;;
13590;SDS011;6866;50.778;7.206;2023-08-24T05:00:19;9.43;;;4.80;;
13590;SDS011;6866;50.778;7.206;2023-08-24T05:02:44;11.35;;;4.75;;
13590;SDS011;6866;50.778;7.206;2023-08-24T05:05:10;12.73;;;4.85;;
13590;SDS011;6866;50.778;7.206;2023-08-24T05:07:39;11.63;;;5.05;;
13590;SDS011;6866;50.778;7.206;2023-08-24T05:10:06;9.25;;;5.10;;
13590;SDS011;6866;50.778;7.206;2023-08-24T05:12:32;8.25;;;4.97;;
13590;SDS011;6866;50.778;7.206;2023-08-24T05:15:00;11.43;;;4.95;;
13590;SDS011;6866;50.778;7.206;2023-08-24T05:17:29;14.10;;;5.00;;
13590;SDS011;6866;50.778;7.206;2023-08-24T05:19:56;11.40;;;5.40;;
13590;SDS011;6866;50.778;7.206;2023-08-24T05:22:22;10.90;;;5.30;;
13590;SDS011;6866;50.778;7.206;2023-08-24T05:24:48;9.38;;;5.30;;
13590;SDS011;6866;50.778;7.206;2023-08-24T05:27:13;17.65;;;6.00;;
13590;SDS011;6866;50.778;7.206;2023-08-24T05:29:39;12.40;;;5.53;;
13590;SDS011;6866;50.778;7.206;2023-08-24T05:32:04;16.00;;;6.47;;
13590;SDS011;6866;50.778;7.206;2023-08-24T05:34:30;14.75;;;6.25;;
13590;SDS011;6866;50.778;7.206;2023-08-24T05:36:56;13.32;;;6.05;;
13590;SDS011;6866;50.778;7.206;2023-08-24T05:39:21;12.43;;;6.20;;
13590;SDS011;6866;50.778;7.206;2023-08-24T05:41:50;14.15;;;5.85;;
13590;SDS011;6866;50.778;7.206;2023-08-24T05:44:16;9.10;;;5.60;;
13590;SDS011;6866;50.778;7.206;2023-08-24T05:46:42;13.40;;;5.85;;
13590;SDS011;6866;50.778;7.206;2023-08-24T05:49:08;12.20;;;5.75;;
13590;SDS011;6866;50.778;7.206;2023-08-24T05:51:33;12.70;;;5.82;;
13590;SDS011;6866;50.778;7.206;2023-08-24T05:53:59;13.75;;;5.97;;
13590;SDS011;6866;50.778;7.206;2023-08-24T05:56:25;14.55;;;6.38;;
13590;SDS011;6866;50.778;7.206;2023-08-24T05:58:51;12.27;;;5.85;;
13590;SDS011;6866;50.778;7.206;2023-08-24T06:01:16;11.75;;;5.47;;
13590;SDS011;6866;50.778;7.206;2023-08-24T06:03:42;13.00;;;5.80;;
13590;SDS011;6866;50.778;7.206;2023-08-24T06:06:09;11.15;;;6.00;;
13590;SDS011;6866;50.778;7.206;2023-08-24T06:08:35;12.52;;;6.30;;
13590;SDS011;6866;50.778;7.206;2023-08-24T06:11:00;7.95;;;5.10;;
13590;SDS011;6866;50.778;7.206;2023-08-24T06:13:26;10.10;;;5.07;;
13590;SDS011;6866;50.778;7.206;2023-08-24T06:15:52;8.50;;;5.40;;
13590;SDS011;6866;50.778;7.206;2023-08-24T06:18:19;10.07;;;5.32;;
13590;SDS011;6866;50.778;7.206;2023-08-24T06:20:45;10.73;;;5.50;;
13590;SDS011;6866;50.778;7.206;2023-08-24T06:23:11;8.48;;;5.13;;
13590;SDS011;6866;50.778;7.206;2023-08-24T06:25:38;11.68;;;5.03;;
13590;SDS011;6866;50.778;7.206;2023-08-24T06:28:03;11.10;;;5.00;;
13590;SDS011;6866;50.778;7.206;2023-08-24T06:30:29;7.80;;;4.75;;
13590;SDS011;6866;50.778;7.206;2023-08-24T06:33:02;8.57;;;4.47;;
13590;SDS011;6866;50.778;7.206;2023-08-24T06:40:19;8.05;;;3.72;;
13590;SDS011;6866;50.778;7.206;2023-08-24T06:45:10;6.05;;;3.40;;
13590;SDS011;6866;50.778;7.206;2023-08-24T06:47:36;9.30;;;3.47;;
13590;SDS011;6866;50.778;7.206;2023-08-24T06:50:02;6.90;;;3.30;;
13590;SDS011;6866;50.778;7.206;2023-08-24T06:52:27;7.20;;;3.70;;
13590;SDS011;6866;50.778;7.206;2023-08-24T06:54:53;6.70;;;3.35;;
13590;SDS011;6866;50.778;7.206;2023-08-24T06:57:21;9.98;;;3.33;;
13590;SDS011;6866;50.778;7.206;2023-08-24T06:59:46;6.55;;;3.10;;
13590;SDS011;6866;50.778;7.206;2023-08-24T07:02:12;8.73;;;3.28;;
13590;SDS011;6866;50.778;7.206;2023-08-24T07:04:38;9.30;;;3.33;;
13590;SDS011;6866;50.778;7.206;2023-08-24T07:07:05;7.93;;;3.10;;
13590;SDS011;6866;50.778;7.206;2023-08-24T07:09:31;9.02;;;3.05;;
13590;SDS011;6866;50.778;7.206;2023-08-24T07:11:57;7.32;;;3.10;;
13590;SDS011;6866;50.778;7.206;2023-08-24T07:14:22;10.07;;;3.38;;
13590;SDS011;6866;50.778;7.206;2023-08-24T07:16:48;11.65;;;3.55;;
13590;SDS011;6866;50.778;7.206;2023-08-24T07:19:13;8.68;;;3.20;;
13590;SDS011;6866;50.778;7.206;2023-08-24T07:21:39;8.77;;;3.28;;
13590;SDS011;6866;50.778;7.206;2023-08-24T07:24:04;10.43;;;3.35;;
13590;SDS011;6866;50.778;7.206;2023-08-24T07:26:30;9.45;;;3.35;;
13590;SDS011;6866;50.778;7.206;2023-08-24T07:28:56;10.00;;;3.47;;
13590;SDS011;6866;50.778;7.206;2023-08-24T07:31:22;10.25;;;3.40;;
13590;SDS011;6866;50.778;7.206;2023-08-24T07:33:48;8.00;;;2.38;;
13590;SDS011;6866;50.778;7.206;2023-08-24T07:36:13;4.63;;;2.45;;
13590;SDS011;6866;50.778;7.206;2023-08-24T07:43:31;5.28;;;2.10;;
13590;SDS011;6866;50.778;7.206;2023-08-24T07:45:57;7.93;;;2.58;;
13590;SDS011;6866;50.778;7.206;2023-08-24T07:48:23;4.13;;;2.13;;
13590;SDS011;6866;50.778;7.206;2023-08-24T07:50:49;5.45;;;2.00;;
13590;SDS011;6866;50.778;7.206;2023-08-24T07:53:14;7.78;;;2.17;;
13590;SDS011;6866;50.778;7.206;2023-08-24T07:55:40;6.15;;;2.22;;
13590;SDS011;6866;50.778;7.206;2023-08-24T07:58:07;4.72;;;2.30;;
13590;SDS011;6866;50.778;7.206;2023-08-24T08:02:58;6.53;;;1.92;;
13590;SDS011;6866;50.778;7.206;2023-08-24T08:05:24;5.97;;;2.08;;
13590;SDS011;6866;50.778;7.206;2023-08-24T08:15:08;5.20;;;2.10;;
13590;SDS011;6866;50.778;7.206;2023-08-24T08:17:33;4.00;;;2.10;;
13590;SDS011;6866;50.778;7.206;2023-08-24T08:19:59;6.55;;;2.42;;
13590;SDS011;6866;50.778;7.206;2023-08-24T08:22:24;4.65;;;2.17;;
13590;SDS011;6866;50.778;7.206;2023-08-24T08:24:50;6.47;;;2.03;;
13590;SDS011;6866;50.778;7.206;2023-08-24T08:27:19;7.95;;;2.00;;
13590;SDS011;6866;50.778;7.206;2023-08-24T08:29:44;5.95;;;2.42;;
13590;SDS011;6866;50.778;7.206;2023-08-24T08:32:10;4.82;;;2.10;;
13590;SDS011;6866;50.778;7.206;2023-08-24T08:34:37;4.47;;;2.08;;
13590;SDS011;6866;50.778;7.206;2023-08-24T08:37:03;5.43;;;2.25;;
13590;SDS011;6866;50.778;7.206;2023-08-24T09:21:13;8.80;;;2.30;;
13590;SDS011;6866;50.778;7.206;2023-08-24T09:23:53;5.03;;;2.10;;
13590;SDS011;6866;50.778;7.206;2023-08-24T09:26:27;6.32;;;2.47;;
13590;SDS011;6866;50.778;7.206;2023-08-24T09:29:14;6.22;;;2.38;;
13590;SDS011;6866;50.778;7.206;2023-08-24T09:31:40;8.65;;;2.38;;
13590;SDS011;6866;50.778;7.206;2023-08-24T09:34:09;8.60;;;2.75;;
13590;SDS011;6866;50.778;7.206;2023-08-24T09:36:35;7.72;;;2.90;;
13590;SDS011;6866;50.778;7.206;2023-08-24T09:39:02;5.57;;;2.50;;
13590;SDS011;6866;50.778;7.206;2023-08-24T09:44:04;5.57;;;2.22;;
13590;SDS011;6866;50.778;7.206;2023-08-24T09:46:30;6.22;;;2.50;;
13590;SDS011;6866;50.778;7.206;2023-08-24T09:48:56;5.82;;;2.28;;
13590;SDS011;6866;50.778;7.206;2023-08-24T09:51:24;5.47;;;1.95;;
13590;SDS011;6866;50.778;7.206;2023-08-24T09:56:21;6.20;;;2.38;;
13590;SDS011;6866;50.778;7.206;2023-08-24T09:58:49;5.75;;;2.30;;
13590;SDS011;6866;50.778;7.206;2023-08-24T10:01:18;7.25;;;2.70;;
13590;SDS011;6866;50.778;7.206;2023-08-24T10:03:45;7.53;;;2.20;;
13590;SDS011;6866;50.778;7.206;2023-08-24T10:06:12;6.40;;;2.38;;
13590;SDS011;6866;50.778;7.206;2023-08-24T10:08:39;5.85;;;2.50;;
13590;SDS011;6866;50.778;7.206;2023-08-24T10:11:12;5.40;;;2.40;;
13590;SDS011;6866;50.778;7.206;2023-08-24T10:16:20;5.18;;;2.40;;
13590;SDS011;6866;50.778;7.206;2023-08-24T10:21:12;4.97;;;2.35;;
13590;SDS011;6866;50.778;7.206;2023-08-24T10:23:38;8.85;;;2.40;;
13590;SDS011;6866;50.778;7.206;2023-08-24T10:26:05;5.43;;;2.40;;
13590;SDS011;6866;50.778;7.206;2023-08-24T10:28:31;8.98;;;2.58;;
13590;SDS011;6866;50.778;7.206;2023-08-24T10:33:24;5.05;;;2.10;;
13590;SDS011;6866;50.778;7.206;2023-08-24T10:35:51;6.55;;;2.38;;
13590;SDS011;6866;50.778;7.206;2023-08-24T10:38:27;5.13;;;2.35;;
13590;SDS011;6866;50.778;7.206;2023-08-24T10:40:54;7.90;;;2.70;;
13590;SDS011;6866;50.778;7.206;2023-08-24T10:43:28;5.38;;;2.58;;
13590;SDS011;6866;50.778;7.206;2023-08-24T10:46:00;6.18;;;2.45;;
13590;SDS011;6866;50.778;7.206;2023-08-24T10:48:29;6.13;;;2.30;;
13590;SDS011;6866;50.778;7.206;2023-08-24T10:56:18;3.83;;;2.00;;
13590;SDS011;6866;50.778;7.206;2023-08-24T10:58:44;5.28;;;2.00;;
13590;SDS011;6866;50.778;7.206;2023-08-24T11:01:17;11.85;;;2.50;;
13590;SDS011;6866;50.778;7.206;2023-08-24T11:03:50;5.93;;;2.30;;
13590;SDS011;6866;50.778;7.206;2023-08-24T11:06:23;6.90;;;2.30;;
13590;SDS011;6866;50.778;7.206;2023-08-24T11:09:04;6.22;;;2.38;;
13590;SDS011;6866;50.778;7.206;2023-08-24T11:11:31;5.05;;;2.30;;
13590;SDS011;6866;50.778;7.206;2023-08-24T11:14:16;4.05;;;2.20;;
13590;SDS011;6866;50.778;7.206;2023-08-24T11:16:48;6.38;;;2.40;;
13590;SDS011;6866;50.778;7.206;2023-08-24T11:19:14;5.15;;;2.50;;
13590;SDS011;6866;50.778;7.206;2023-08-24T11:21:41;9.52;;;2.83;;
13590;SDS011;6866;50.778;7.206;2023-08-24T11:24:09;6.45;;;2.70;;
13590;SDS011;6866;50.778;7.206;2023-08-24T11:26:41;5.88;;;2.50;;
13590;SDS011;6866;50.778;7.206;2023-08-24T11:29:07;7.43;;;2.70;;
13590;SDS011;6866;50.778;7.206;2023-08-24T11:31:33;5.93;;;2.42;;
13590;SDS011;6866;50.778;7.206;2023-08-24T11:34:00;5.30;;;2.20;;
13590;SDS011;6866;50.778;7.206;2023-08-24T11:36:25;4.00;;;2.45;;
13590;SDS011;6866;50.778;7.206;2023-08-24T11:38:53;3.83;;;2.30;;
13590;SDS011;6866;50.778;7.206;2023-08-24T11:41:21;6.35;;;2.42;;
13590;SDS011;6866;50.778;7.206;2023-08-24T11:43:47;7.78;;;2.42;;
13590;SDS011;6866;50.778;7.206;2023-08-24T11:46:15;6.90;;;2.50;;
13590;SDS011;6866;50.778;7.206;2023-08-24T11:48:42;4.80;;;2.13;;
13590;SDS011;6866;50.778;7.206;2023-08-24T11:51:08;13.65;;;3.05;;
13590;SDS011;6866;50.778;7.206;2023-08-24T11:56:02;6.38;;;2.22;;
13590;SDS011;6866;50.778;7.206;2023-08-24T11:58:30;5.38;;;2.53;;
13590;SDS011;6866;50.778;7.206;2023-08-24T12:00:56;5.88;;;2.35;;
13590;SDS011;6866;50.778;7.206;2023-08-24T12:03:23;7.75;;;2.85;;
13590;SDS011;6866;50.778;7.206;2023-08-24T12:05:48;7.22;;;3.20;;
13590;SDS011;6866;50.778;7.206;2023-08-24T12:08:15;12.02;;;4.35;;
13590;SDS011;6866;50.778;7.206;2023-08-24T12:10:43;7.97;;;2.67;;
13590;SDS011;6866;50.778;7.206;2023-08-24T12:13:09;4.78;;;2.35;;
13590;SDS011;6866;50.778;7.206;2023-08-24T12:15:37;4.65;;;2.47;;
13590;SDS011;6866;50.778;7.206;2023-08-24T12:20:38;7.60;;;2.70;;
13590;SDS011;6866;50.778;7.206;2023-08-24T12:23:05;5.25;;;2.40;;
13590;SDS011;6866;50.778;7.206;2023-08-24T12:25:35;4.93;;;2.47;;
13590;SDS011;6866;50.778;7.206;2023-08-24T12:28:13;4.57;;;2.30;;
13590;SDS011;6866;50.778;7.206;2023-08-24T12:30:52;6.35;;;2.90;;
13590;SDS011;6866;50.778;7.206;2023-08-24T12:35:47;9.98;;;4.03;;
13590;SDS011;6866;50.778;7.206;2023-08-24T12:38:13;4.65;;;2.70;;
13590;SDS011;6866;50.778;7.206;2023-08-24T12:40:38;11.38;;;2.80;;
13590;SDS011;6866;50.778;7.206;2023-08-24T12:43:04;6.10;;;2.40;;
13590;SDS011;6866;50.778;7.206;2023-08-24T12:45:31;4.43;;;2.50;;
13590;SDS011;6866;50.778;7.206;2023-08-24T12:47:56;8.15;;;3.08;;
13590;SDS011;6866;50.778;7.206;2023-08-24T12:50:22;6.05;;;2.80;;
13590;SDS011;6866;50.778;7.206;2023-08-24T12:52:47;8.25;;;3.15;;
13590;SDS011;6866;50.778;7.206;2023-08-24T12:55:14;6.70;;;2.88;;
13590;SDS011;6866;50.778;7.206;2023-08-24T12:57:39;5.45;;;2.60;;
13590;SDS011;6866;50.778;7.206;2023-08-24T13:00:05;6.43;;;2.72;;
13590;SDS011;6866;50.778;7.206;2023-08-24T13:02:33;7.90;;;2.70;;
13590;SDS011;6866;50.778;7.206;2023-08-24T13:04:58;7.18;;;2.85;;
13590;SDS011;6866;50.778;7.206;2023-08-24T13:07:26;5.35;;;2.92;;
13590;SDS011;6866;50.778;7.206;2023-08-24T13:09:51;8.10;;;2.80;;
13590;SDS011;6866;50.778;7.206;2023-08-24T13:12:17;10.25;;;2.70;;
13590;SDS011;6866;50.778;7.206;2023-08-24T13:14:42;5.07;;;2.20;;
13590;SDS011;6866;50.778;7.206;2023-08-24T13:17:08;9.13;;;2.95;;
13590;SDS011;6866;50.778;7.206;2023-08-24T13:19:33;7.88;;;3.15;;
13590;SDS011;6866;50.778;7.206;2023-08-24T13:21:59;7.72;;;3.25;;
13590;SDS011;6866;50.778;7.206;2023-08-24T13:24:24;7.43;;;2.88;;
13590;SDS011;6866;50.778;7.206;2023-08-24T13:26:50;8.40;;;2.60;;
13590;SDS011;6866;50.778;7.206;2023-08-24T13:29:15;7.05;;;2.67;;
13590;SDS011;6866;50.778;7.206;2023-08-24T13:31:41;6.07;;;2.47;;
13590;SDS011;6866;50.778;7.206;2023-08-24T13:34:06;8.98;;;3.22;;
13590;SDS011;6866;50.778;7.206;2023-08-24T13:36:32;7.43;;;2.55;;
13590;SDS011;6866;50.778;7.206;2023-08-24T13:38:58;6.45;;;2.83;;
13590;SDS011;6866;50.778;7.206;2023-08-24T13:41:24;7.43;;;2.70;;
13590;SDS011;6866;50.778;7.206;2023-08-24T13:43:49;7.22;;;3.03;;
13590;SDS011;6866;50.778;7.206;2023-08-24T13:46:15;7.88;;;2.97;;
13590;SDS011;6866;50.778;7.206;2023-08-24T13:48:40;5.15;;;2.50;;
13590;SDS011;6866;50.778;7.206;2023-08-24T13:51:06;6.40;;;2.85;;
13590;SDS011;6866;50.778;7.206;2023-08-24T13:53:33;8.65;;;3.35;;
13590;SDS011;6866;50.778;7.206;2023-08-24T13:55:58;9.00;;;3.25;;
13590;SDS011;6866;50.778;7.206;2023-08-24T13:58:24;8.45;;;3.22;;
13590;SDS011;6866;50.778;7.206;2023-08-24T14:00:56;7.13;;;2.90;;
13590;SDS011;6866;50.778;7.206;2023-08-24T14:03:22;6.05;;;2.90;;
13590;SDS011;6866;50.778;7.206;2023-08-24T14:05:47;6.28;;;3.03;;
13590;SDS011;6866;50.778;7.206;2023-08-24T14:08:14;5.07;;;2.80;;
13590;SDS011;6866;50.778;7.206;2023-08-24T14:10:40;7.97;;;3.20;;
13590;SDS011;6866;50.778;7.206;2023-08-24T14:13:06;6.03;;;3.15;;
13590;SDS011;6866;50.778;7.206;2023-08-24T14:15:31;7.07;;;3.08;;
13590;SDS011;6866;50.778;7.206;2023-08-24T14:17:57;7.20;;;3.17;;
13590;SDS011;6866;50.778;7.206;2023-08-24T14:20:22;9.45;;;3.10;;
13590;SDS011;6866;50.778;7.206;2023-08-24T14:22:49;7.72;;;2.75;;
13590;SDS011;6866;50.778;7.206;2023-08-24T14:25:14;7.30;;;3.17;;
13590;SDS011;6866;50.778;7.206;2023-08-24T14:27:40;9.77;;;3.25;;
13590;SDS011;6866;50.778;7.206;2023-08-24T14:30:09;6.28;;;2.92;;
13590;SDS011;6866;50.778;7.206;2023-08-24T14:32:35;7.68;;;3.13;;
13590;SDS011;6866;50.778;7.206;2023-08-24T14:35:00;9.30;;;3.47;;
13590;SDS011;6866;50.778;7.206;2023-08-24T14:37:28;5.28;;;2.78;;
13590;SDS011;6866;50.778;7.206;2023-08-24T14:39:55;6.60;;;3.03;;
13590;SDS011;6866;50.778;7.206;2023-08-24T14:42:20;7.10;;;3.03;;
13590;SDS011;6866;50.778;7.206;2023-08-24T14:44:46;10.38;;;3.22;;
13590;SDS011;6866;50.778;7.206;2023-08-24T14:47:12;8.05;;;3.35;;
13590;SDS011;6866;50.778;7.206;2023-08-24T14:49:38;7.05;;;3.05;;
13590;SDS011;6866;50.778;7.206;2023-08-24T14:52:03;6.10;;;3.10;;
13590;SDS011;6866;50.778;7.206;2023-08-24T14:54:29;8.15;;;3.25;;
13590;SDS011;6866;50.778;7.206;2023-08-24T14:56:55;7.72;;;3.08;;
13590;SDS011;6866;50.778;7.206;2023-08-24T14:59:21;6.30;;;2.90;;
13590;SDS011;6866;50.778;7.206;2023-08-24T15:01:47;11.52;;;3.33;;
13590;SDS011;6866;50.778;7.206;2023-08-24T15:04:13;7.22;;;2.85;;
13590;SDS011;6866;50.778;7.206;2023-08-24T15:06:38;8.32;;;3.10;;
13590;SDS011;6866;50.778;7.206;2023-08-24T15:09:04;10.10;;;3.35;;
13590;SDS011;6866;50.778;7.206;2023-08-24T15:11:29;9.70;;;2.88;;
13590;SDS011;6866;50.778;7.206;2023-08-24T15:13:55;8.13;;;3.10;;
13590;SDS011;6866;50.778;7.206;2023-08-24T15:16:21;8.85;;;3.30;;
13590;SDS011;6866;50.778;7.206;2023-08-24T15:18:46;6.72;;;2.78;;
13590;SDS011;6866;50.778;7.206;2023-08-24T15:21:12;6.88;;;2.95;;
13590;SDS011;6866;50.778;7.206;2023-08-24T15:23:39;6.28;;;2.65;;
13590;SDS011;6866;50.778;7.206;2023-08-24T15:26:05;7.10;;;3.00;;
13590;SDS011;6866;50.778;7.206;2023-08-24T15:29:06;7.40;;;2.88;;
13590;SDS011;6866;50.778;7.206;2023-08-24T15:31:51;8.52;;;2.92;;
13590;SDS011;6866;50.778;7.206;2023-08-24T15:34:17;8.00;;;3.17;;
13590;SDS011;6866;50.778;7.206;2023-08-24T15:36:43;8.48;;;3.10;;
13590;SDS011;6866;50.778;7.206;2023-08-24T15:39:09;6.90;;;2.92;;
13590;SDS011;6866;50.778;7.206;2023-08-24T15:41:34;8.00;;;3.00;;
13590;SDS011;6866;50.778;7.206;2023-08-24T15:44:00;6.53;;;2.70;;
13590;SDS011;6866;50.778;7.206;2023-08-24T15:46:25;8.85;;;3.17;;
13590;SDS011;6866;50.778;7.206;2023-08-24T15:48:51;13.88;;;3.55;;
13590;SDS011;6866;50.778;7.206;2023-08-24T15:51:20;10.82;;;3.83;;
13590;SDS011;6866;50.778;7.206;2023-08-24T15:53:46;8.40;;;3.17;;
13590;SDS011;6866;50.778;7.206;2023-08-24T15:56:12;9.93;;;3.17;;
13590;SDS011;6866;50.778;7.206;2023-08-24T15:58:38;6.43;;;3.05;;
13590;SDS011;6866;50.778;7.206;2023-08-24T16:01:03;7.25;;;2.67;;
13590;SDS011;6866;50.778;7.206;2023-08-24T16:03:30;8.60;;;2.60;;
13590;SDS011;6866;50.778;7.206;2023-08-24T16:05:56;7.22;;;2.80;;
13590;SDS011;6866;50.778;7.206;2023-08-24T16:08:23;7.95;;;2.80;;
13590;SDS011;6866;50.778;7.206;2023-08-24T16:10:50;9.93;;;2.90;;
13590;SDS011;6866;50.778;7.206;2023-08-24T16:13:16;7.57;;;2.58;;
13590;SDS011;6866;50.778;7.206;2023-08-24T16:15:42;7.00;;;2.65;;
13590;SDS011;6866;50.778;7.206;2023-08-24T16:18:09;7.78;;;2.45;;
13590;SDS011;6866;50.778;7.206;2023-08-24T16:20:34;6.97;;;2.40;;
13590;SDS011;6866;50.778;7.206;2023-08-24T16:23:01;5.40;;;2.10;;
13590;SDS011;6866;50.778;7.206;2023-08-24T16:25:29;6.88;;;2.33;;
13590;SDS011;6866;50.778;7.206;2023-08-24T16:27:57;7.15;;;2.25;;
13590;SDS011;6866;50.778;7.206;2023-08-24T16:30:23;8.43;;;3.17;;
13590;SDS011;6866;50.778;7.206;2023-08-24T16:32:49;8.50;;;3.08;;
13590;SDS011;6866;50.778;7.206;2023-08-24T16:35:15;9.57;;;2.75;;